createdAt,value
2023-06-27T00:02:03.911Z,14.80
2023-06-27T00:04:31.196Z,14.80
2023-06-27T00:06:58.391Z,14.80
2023-06-27T00:09:25.431Z,14.80
2023-06-27T00:11:52.634Z,14.80
2023-06-27T00:14:20.697Z,14.80
2023-06-27T00:16:47.825Z,14.80
2023-06-27T00:19:14.908Z,14.80
2023-06-27T00:21:42.208Z,14.80
2023-06-27T00:24:09.283Z,14.80
2023-06-27T00:26:36.449Z,14.80
2023-06-27T00:29:03.784Z,14.80
2023-06-27T00:31:31.025Z,14.80
2023-06-27T00:33:58.049Z,14.80
2023-06-27T00:36:25.426Z,14.90
2023-06-27T00:38:52.375Z,14.80
2023-06-27T00:41:19.612Z,14.80
2023-06-27T00:43:47.183Z,14.80
2023-06-27T00:46:33.189Z,14.80
2023-06-27T00:49:00.328Z,14.90
2023-06-27T00:51:27.439Z,14.90
2023-06-27T00:53:54.652Z,15.00
2023-06-27T00:56:21.772Z,15.00
2023-06-27T00:58:49.439Z,15.00
2023-06-27T01:01:17.618Z,15.00
2023-06-27T01:03:45.010Z,14.90
2023-06-27T01:06:34.970Z,14.90
2023-06-27T01:09:08.081Z,14.90
2023-06-27T01:11:42.133Z,14.90
2023-06-27T01:14:11.172Z,15.00
2023-06-27T01:16:39.207Z,15.10
2023-06-27T01:19:09.766Z,15.10
2023-06-27T01:21:40.153Z,15.20
2023-06-27T01:24:09.009Z,15.20
2023-06-27T01:26:36.515Z,15.20
2023-06-27T01:29:03.654Z,15.30
2023-06-27T01:31:55.246Z,15.30
2023-06-27T01:34:35.508Z,15.30
2023-06-27T01:37:22.873Z,15.20
2023-06-27T01:40:01.096Z,15.20
2023-06-27T01:42:32.969Z,15.20
2023-06-27T01:45:02.167Z,15.20
2023-06-27T01:47:29.796Z,15.20
2023-06-27T01:49:57.036Z,15.20
2023-06-27T01:52:24.055Z,15.20
2023-06-27T01:54:51.299Z,15.20
2023-06-27T01:57:18.311Z,15.20
2023-06-27T01:59:45.556Z,15.10
2023-06-27T02:02:12.943Z,15.10
2023-06-27T02:04:39.976Z,15.10
2023-06-27T02:07:07.246Z,15.00
2023-06-27T02:09:34.595Z,15.10
2023-06-27T02:12:01.766Z,15.10
2023-06-27T02:14:28.723Z,15.00
2023-06-27T02:16:55.691Z,14.90
2023-06-27T02:19:22.698Z,14.80
2023-06-27T02:21:50.375Z,14.70
2023-06-27T02:24:18.110Z,14.70
2023-06-27T02:26:45.341Z,14.70
2023-06-27T02:29:13.265Z,14.60
2023-06-27T02:31:40.398Z,14.60
2023-06-27T02:34:07.432Z,14.60
2023-06-27T02:36:34.540Z,14.80
2023-06-27T02:39:02.398Z,14.60
2023-06-27T02:41:29.512Z,14.60
2023-06-27T02:43:56.552Z,14.50
2023-06-27T02:46:23.605Z,14.50
2023-06-27T02:48:50.696Z,14.40
2023-06-27T02:51:17.770Z,14.40
2023-06-27T02:53:44.797Z,14.40
2023-06-27T02:56:12.183Z,14.60
2023-06-27T02:58:40.316Z,14.50
2023-06-27T03:01:07.824Z,14.50
2023-06-27T03:03:35.476Z,14.50
2023-06-27T03:06:10.352Z,14.50
2023-06-27T03:08:41.020Z,14.50
2023-06-27T03:11:08.107Z,14.50
2023-06-27T03:13:35.244Z,14.50
2023-06-27T03:16:02.928Z,14.50
2023-06-27T03:18:30.044Z,14.50
2023-06-27T03:20:57.000Z,14.40
2023-06-27T03:23:24.156Z,14.40
2023-06-27T03:25:51.345Z,14.40
2023-06-27T03:28:18.624Z,14.40
2023-06-27T03:30:45.665Z,14.40
2023-06-27T03:33:12.770Z,14.40
2023-06-27T03:35:40.281Z,14.50
2023-06-27T03:38:07.472Z,14.50
2023-06-27T03:40:34.635Z,14.60
2023-06-27T03:43:02.129Z,14.60
2023-06-27T03:45:29.631Z,14.60
2023-06-27T03:47:56.710Z,14.60
2023-06-27T03:50:23.756Z,14.60
2023-06-27T03:52:50.877Z,14.60
2023-06-27T03:55:17.964Z,14.60
2023-06-27T03:57:45.158Z,14.60
2023-06-27T04:00:13.013Z,14.60
2023-06-27T04:02:40.097Z,14.50
2023-06-27T04:05:07.787Z,14.50
2023-06-27T04:07:35.064Z,14.40
2023-06-27T04:10:02.162Z,14.40
2023-06-27T04:12:29.204Z,14.50
2023-06-27T04:14:56.233Z,14.50
2023-06-27T04:17:23.318Z,14.60
2023-06-27T04:19:50.433Z,14.60
2023-06-27T04:22:17.585Z,14.60
2023-06-27T04:24:44.689Z,14.70
2023-06-27T04:27:12.011Z,14.70
2023-06-27T04:29:40.440Z,14.80
2023-06-27T04:32:08.663Z,14.80
2023-06-27T04:34:37.805Z,14.90
2023-06-27T04:37:05.758Z,14.90
2023-06-27T04:39:33.211Z,14.80
2023-06-27T04:42:00.440Z,14.80
2023-06-27T04:44:27.716Z,14.80
2023-06-27T04:46:55.132Z,14.70
2023-06-27T04:49:22.193Z,14.70
2023-06-27T04:51:49.488Z,14.70
2023-06-27T04:54:16.936Z,14.70
2023-06-27T04:56:44.169Z,14.70
2023-06-27T04:59:12.341Z,14.80
2023-06-27T05:01:39.570Z,14.80
2023-06-27T05:04:06.589Z,14.90
2023-06-27T05:06:34.943Z,14.90
2023-06-27T05:09:05.194Z,15.00
2023-06-27T05:11:32.495Z,15.00
2023-06-27T05:13:59.681Z,15.00
2023-06-27T05:16:26.871Z,15.00
2023-06-27T05:18:54.691Z,15.10
2023-06-27T05:21:22.381Z,15.10
2023-06-27T05:23:49.388Z,15.10
2023-06-27T05:26:16.515Z,15.10
2023-06-27T05:28:43.509Z,15.10
2023-06-27T05:31:10.875Z,15.20
2023-06-27T05:33:38.099Z,15.30
2023-06-27T05:36:05.730Z,15.30
2023-06-27T05:38:32.859Z,15.40
2023-06-27T05:41:00.083Z,15.40
2023-06-27T05:43:27.338Z,15.40
2023-06-27T05:45:54.377Z,15.50
2023-06-27T05:48:21.570Z,15.60
2023-06-27T05:50:48.806Z,15.60
2023-06-27T05:53:15.984Z,15.70
2023-06-27T05:55:43.266Z,15.80
2023-06-27T05:58:10.809Z,15.90
2023-06-27T06:00:38.299Z,16.00
2023-06-27T06:03:05.291Z,16.20
2023-06-27T06:05:32.284Z,16.30
2023-06-27T06:07:59.376Z,16.50
2023-06-27T06:10:26.489Z,17.60
2023-06-27T06:12:53.556Z,16.70
2023-06-27T06:15:20.493Z,16.80
2023-06-27T06:17:47.593Z,16.80
2023-06-27T06:20:14.774Z,16.80
2023-06-27T06:22:41.895Z,16.90
2023-06-27T06:25:09.145Z,16.90
2023-06-27T06:27:36.212Z,16.90
2023-06-27T06:30:03.568Z,16.90
2023-06-27T06:32:31.861Z,16.90
2023-06-27T06:35:00.869Z,17.00
2023-06-27T06:37:28.049Z,17.10
2023-06-27T06:39:55.101Z,17.40
2023-06-27T06:42:22.209Z,17.30
2023-06-27T06:44:49.853Z,17.50
2023-06-27T06:47:16.903Z,17.70
2023-06-27T06:49:44.052Z,17.90
2023-06-27T06:52:11.326Z,18.10
2023-06-27T06:54:39.998Z,18.10
2023-06-27T06:57:08.122Z,18.20
2023-06-27T06:59:35.159Z,18.30
2023-06-27T07:02:03.095Z,18.40
2023-06-27T07:04:30.079Z,18.50
2023-06-27T07:06:57.903Z,18.70
2023-06-27T07:09:24.970Z,18.80
2023-06-27T07:11:52.603Z,19.00
2023-06-27T07:14:19.723Z,19.20
2023-06-27T07:16:46.950Z,19.40
2023-06-27T07:19:14.167Z,19.40
2023-06-27T07:21:41.495Z,19.40
2023-06-27T07:24:08.775Z,19.30
2023-06-27T07:26:35.875Z,19.50
2023-06-27T07:29:03.097Z,19.60
2023-06-27T07:31:30.231Z,19.80
2023-06-27T07:33:57.330Z,19.70
2023-06-27T07:36:24.422Z,19.60
2023-06-27T07:38:51.818Z,19.70
2023-06-27T07:41:18.995Z,20.00
2023-06-27T07:43:46.773Z,20.20
2023-06-27T07:46:13.857Z,20.50
2023-06-27T07:48:40.862Z,22.30
2023-06-27T07:51:07.964Z,20.70
2023-06-27T07:53:35.123Z,20.60
2023-06-27T07:56:02.017Z,20.50
2023-06-27T07:58:29.084Z,20.30
2023-06-27T08:00:56.379Z,20.20
2023-06-27T08:03:23.868Z,20.10
2023-06-27T08:05:51.023Z,20.00
2023-06-27T08:08:18.501Z,20.10
2023-06-27T08:10:45.616Z,20.00
2023-06-27T08:13:12.658Z,19.60
2023-06-27T08:15:39.713Z,19.50
2023-06-27T08:18:07.585Z,19.40
2023-06-27T08:20:35.232Z,19.30
2023-06-27T08:23:02.633Z,19.30
2023-06-27T08:25:29.766Z,19.50
2023-06-27T08:27:56.698Z,19.70
2023-06-27T08:30:23.924Z,19.80
2023-06-27T08:32:51.214Z,19.80
2023-06-27T08:35:18.603Z,19.40
2023-06-27T08:37:45.764Z,19.30
2023-06-27T08:40:22.255Z,19.30
2023-06-27T08:42:49.645Z,19.20
2023-06-27T08:45:17.047Z,19.30
2023-06-27T08:47:47.526Z,19.50
2023-06-27T08:50:15.049Z,19.90
2023-06-27T08:52:48.907Z,20.10
2023-06-27T08:55:45.717Z,20.00
2023-06-27T08:58:16.993Z,19.90
2023-06-27T09:00:46.732Z,19.90
2023-06-27T09:03:15.309Z,20.10
2023-06-27T09:05:44.136Z,20.30
2023-06-27T09:08:13.149Z,20.40
2023-06-27T09:10:41.928Z,20.50
2023-06-27T09:13:10.431Z,20.70
2023-06-27T09:15:38.538Z,20.80
2023-06-27T09:18:06.164Z,20.80
2023-06-27T09:20:33.535Z,20.90
2023-06-27T09:23:06.960Z,20.80
2023-06-27T09:25:34.191Z,20.80
2023-06-27T09:28:17.984Z,20.90
2023-06-27T09:31:12.109Z,21.00
2023-06-27T09:33:43.794Z,21.10
2023-06-27T09:36:13.471Z,21.00
2023-06-27T09:41:13.452Z,21.20
2023-06-27T09:43:40.416Z,21.50
2023-06-27T09:46:07.638Z,21.50
2023-06-27T09:48:36.491Z,21.20
2023-06-27T09:51:09.877Z,21.00
2023-06-27T09:53:36.934Z,20.90
2023-06-27T09:56:04.129Z,20.70
2023-06-27T09:58:34.212Z,20.60
2023-06-27T10:01:08.015Z,20.40
2023-06-27T10:03:36.183Z,20.40
2023-06-27T10:08:51.281Z,20.50
2023-06-27T10:11:18.698Z,20.50
2023-06-27T10:13:46.017Z,20.50
2023-06-27T10:16:13.640Z,20.70
2023-06-27T10:18:40.718Z,20.90
2023-06-27T10:21:08.858Z,21.00
2023-06-27T10:23:39.127Z,21.20
2023-06-27T10:26:06.661Z,21.40
2023-06-27T10:28:33.776Z,21.50
2023-06-27T10:31:01.037Z,21.40
2023-06-27T10:33:33.018Z,21.40
2023-06-27T10:36:04.618Z,21.50
2023-06-27T10:38:42.338Z,21.70
2023-06-27T10:41:23.598Z,21.70
2023-06-27T10:43:52.433Z,21.50
2023-06-27T10:46:28.921Z,21.30
2023-06-27T10:49:03.465Z,21.30
2023-06-27T10:51:43.096Z,21.40
2023-06-27T10:54:10.360Z,21.60
2023-06-27T10:56:44.446Z,21.80
2023-06-27T10:59:18.216Z,21.70
2023-06-27T11:01:51.148Z,21.50
2023-06-27T11:04:27.067Z,21.20
2023-06-27T11:07:01.997Z,21.20
2023-06-27T11:09:30.955Z,21.20
2023-06-27T11:12:16.145Z,21.30
2023-06-27T11:14:45.466Z,21.40
2023-06-27T11:17:13.652Z,21.40
2023-06-27T11:19:41.812Z,21.50
2023-06-27T11:22:08.930Z,21.40
2023-06-27T11:24:36.614Z,21.40
2023-06-27T11:27:08.418Z,21.50
2023-06-27T11:29:36.001Z,21.60
2023-06-27T11:32:03.276Z,21.60
2023-06-27T11:34:30.602Z,21.50
2023-06-27T11:36:57.923Z,21.40
2023-06-27T11:39:25.079Z,21.40
2023-06-27T11:41:56.045Z,21.50
2023-06-27T11:44:31.457Z,21.80
2023-06-27T11:46:58.930Z,22.10
2023-06-27T11:49:27.213Z,21.90
2023-06-27T11:51:58.461Z,21.70
2023-06-27T11:54:25.727Z,21.60
2023-06-27T11:56:52.845Z,21.50
2023-06-27T11:59:31.522Z,21.60
2023-06-27T12:01:59.801Z,21.70
2023-06-27T12:04:26.922Z,21.60
2023-06-27T12:06:54.038Z,21.60
2023-06-27T12:09:26.535Z,21.40
2023-06-27T12:11:56.284Z,21.50
2023-06-27T12:14:24.107Z,21.60
2023-06-27T12:16:51.222Z,21.70
2023-06-27T12:19:23.156Z,21.70
2023-06-27T12:21:53.086Z,21.60
2023-06-27T12:24:21.409Z,21.60
2023-06-27T12:26:49.046Z,22.20
2023-06-27T12:29:18.953Z,21.40
2023-06-27T12:31:47.563Z,21.40
2023-06-27T12:34:14.928Z,21.40
2023-06-27T12:36:42.389Z,21.40
2023-06-27T12:39:09.748Z,21.50
2023-06-27T12:41:36.940Z,21.60
2023-06-27T12:44:04.088Z,21.80
2023-06-27T12:46:32.690Z,21.90
2023-06-27T12:48:59.669Z,22.20
2023-06-27T12:51:26.583Z,22.50
2023-06-27T12:53:53.621Z,22.60
2023-06-27T12:56:22.012Z,22.80
2023-06-27T12:58:49.257Z,22.90
2023-06-27T13:01:18.458Z,22.80
2023-06-27T13:03:45.920Z,22.90
2023-06-27T13:06:13.181Z,22.90
2023-06-27T13:08:40.224Z,22.70
2023-06-27T13:11:07.279Z,22.50
2023-06-27T13:13:35.536Z,22.40
2023-06-27T13:16:14.406Z,22.30
2023-06-27T13:18:44.386Z,22.50
2023-06-27T13:21:11.689Z,22.50
2023-06-27T13:23:38.768Z,22.50
2023-06-27T13:26:06.827Z,22.40
2023-06-27T13:28:34.104Z,22.40
2023-06-27T13:31:01.442Z,22.60
2023-06-27T13:33:28.477Z,22.80
2023-06-27T13:35:56.170Z,22.80
2023-06-27T13:38:23.194Z,22.70
2023-06-27T13:40:50.528Z,22.70
2023-06-27T13:43:17.539Z,22.80
2023-06-27T13:45:48.284Z,22.90
2023-06-27T13:48:15.545Z,22.90
2023-06-27T13:50:42.889Z,22.90
2023-06-27T13:53:10.226Z,22.80
2023-06-27T13:55:37.252Z,22.70
2023-06-27T13:58:04.292Z,22.70
2023-06-27T14:00:31.640Z,22.80
2023-06-27T14:02:58.910Z,22.80
2023-06-27T14:05:26.161Z,22.80
2023-06-27T14:07:53.798Z,22.70
2023-06-27T14:10:21.056Z,22.80
2023-06-27T14:12:48.043Z,22.90
2023-06-27T14:15:19.459Z,23.10
2023-06-27T14:17:47.204Z,23.10
2023-06-27T14:20:14.176Z,22.90
2023-06-27T14:22:41.155Z,22.90
2023-06-27T14:25:09.111Z,22.90
2023-06-27T14:27:37.097Z,23.00
2023-06-27T14:30:05.646Z,23.00
2023-06-27T14:32:32.659Z,22.90
2023-06-27T14:34:59.699Z,22.90
2023-06-27T14:37:26.758Z,22.70
2023-06-27T14:39:57.005Z,21.90
2023-06-27T14:42:24.144Z,22.50
2023-06-27T14:44:51.725Z,22.40
2023-06-27T14:47:19.249Z,22.30
2023-06-27T14:49:46.431Z,21.20
2023-06-27T14:52:14.678Z,22.50
2023-06-27T14:54:41.671Z,22.60
2023-06-27T14:57:08.887Z,22.80
2023-06-27T14:59:36.180Z,23.00
2023-06-27T15:02:03.570Z,23.20
2023-06-27T15:04:30.608Z,23.20
2023-06-27T15:06:57.621Z,23.30
2023-06-27T15:09:25.341Z,23.30
2023-06-27T15:11:52.558Z,23.40
2023-06-27T15:14:19.622Z,23.40
2023-06-27T15:16:46.785Z,23.30
2023-06-27T15:19:13.841Z,23.20
2023-06-27T15:21:41.330Z,23.20
2023-06-27T15:24:08.502Z,23.30
2023-06-27T15:26:35.625Z,23.40
2023-06-27T15:29:02.755Z,23.50
2023-06-27T15:31:32.168Z,23.50
2023-06-27T15:34:01.068Z,23.40
2023-06-27T15:36:28.091Z,23.40
2023-06-27T15:38:55.275Z,23.50
2023-06-27T15:41:23.284Z,23.50
2023-06-27T15:43:50.446Z,25.70
2023-06-27T15:46:17.509Z,23.40
2023-06-27T15:48:44.663Z,23.30
2023-06-27T15:51:11.716Z,23.30
2023-06-27T15:53:40.729Z,23.50
2023-06-27T15:56:07.898Z,23.70
2023-06-27T15:58:35.116Z,23.70
2023-06-27T16:01:02.313Z,23.40
2023-06-27T16:03:29.952Z,23.20
2023-06-27T16:05:57.158Z,23.10
2023-06-27T16:08:24.347Z,23.00
2023-06-27T16:10:51.418Z,23.00
2023-06-27T16:13:18.500Z,23.10
2023-06-27T16:15:46.203Z,23.20
2023-06-27T16:18:14.077Z,23.20
2023-06-27T16:20:43.584Z,23.10
2023-06-27T16:23:11.218Z,22.90
2023-06-27T16:25:38.249Z,23.00
2023-06-27T16:28:05.667Z,23.20
2023-06-27T16:30:32.752Z,23.40
2023-06-27T16:33:00.687Z,23.30
2023-06-27T16:35:28.755Z,23.40
2023-06-27T16:37:57.363Z,23.40
2023-06-27T16:40:26.298Z,23.20
2023-06-27T16:42:53.493Z,23.00
2023-06-27T16:45:22.523Z,23.00
2023-06-27T16:47:51.810Z,22.90
2023-06-27T16:50:21.434Z,22.90
2023-06-27T16:52:49.219Z,22.80
2023-06-27T16:55:16.437Z,22.80
2023-06-27T16:57:44.600Z,22.80
2023-06-27T17:00:13.368Z,22.70
2023-06-27T17:02:41.403Z,22.70
2023-06-27T17:05:09.084Z,22.70
2023-06-27T17:07:36.775Z,22.60
2023-06-27T17:10:04.455Z,22.40
2023-06-27T17:12:33.243Z,22.40
2023-06-27T17:15:01.195Z,22.50
2023-06-27T17:17:28.464Z,22.50
2023-06-27T17:19:55.638Z,22.30
2023-06-27T17:22:22.855Z,22.10
2023-06-27T17:24:49.932Z,22.00
2023-06-27T17:27:17.724Z,22.00
2023-06-27T17:29:44.740Z,22.20
2023-06-27T17:32:11.906Z,22.30
2023-06-27T17:34:38.863Z,22.30
2023-06-27T17:37:06.155Z,22.20
2023-06-27T17:39:33.235Z,22.10
2023-06-27T17:42:00.351Z,22.10
2023-06-27T17:44:27.706Z,21.90
2023-06-27T17:46:54.871Z,21.90
2023-06-27T17:49:25.104Z,21.90
2023-06-27T17:51:52.935Z,21.90
2023-06-27T17:54:19.954Z,21.80
2023-06-27T17:56:47.906Z,21.80
2023-06-27T17:59:15.115Z,21.70
2023-06-27T18:01:42.419Z,21.70
2023-06-27T18:04:09.636Z,21.60
2023-06-27T18:06:36.546Z,21.40
2023-06-27T18:09:04.127Z,21.40
2023-06-27T18:11:31.091Z,21.30
2023-06-27T18:13:58.102Z,21.30
2023-06-27T18:16:25.122Z,21.20
2023-06-27T18:18:52.099Z,21.30
2023-06-27T18:21:19.072Z,21.40
2023-06-27T18:23:46.284Z,21.60
2023-06-27T18:26:13.948Z,21.60
2023-06-27T18:28:41.198Z,21.70
2023-06-27T18:31:08.614Z,21.70
2023-06-27T18:33:35.697Z,21.60
2023-06-27T18:36:04.438Z,21.60
2023-06-27T18:38:32.592Z,21.50
2023-06-27T18:41:00.399Z,21.50
2023-06-27T18:43:27.658Z,21.30
2023-06-27T18:45:54.726Z,21.30
2023-06-27T18:48:22.031Z,21.30
2023-06-27T18:50:49.572Z,21.30
2023-06-27T18:53:16.896Z,21.20
2023-06-27T18:55:43.920Z,21.10
2023-06-27T18:58:11.209Z,20.90
2023-06-27T19:00:38.192Z,20.90
2023-06-27T19:03:05.406Z,20.70
2023-06-27T19:05:34.288Z,20.60
2023-06-27T19:08:01.334Z,20.50
2023-06-27T19:10:28.412Z,20.30
2023-06-27T19:12:56.402Z,20.20
2023-06-27T19:15:24.979Z,20.00
2023-06-27T19:17:52.185Z,19.80
2023-06-27T19:20:19.952Z,19.70
2023-06-27T19:22:47.677Z,19.60
2023-06-27T19:25:16.448Z,19.50
2023-06-27T19:27:43.864Z,19.40
2023-06-27T19:30:11.309Z,19.40
2023-06-27T19:32:38.903Z,19.30
2023-06-27T19:35:06.827Z,19.30
2023-06-27T19:37:34.014Z,19.10
2023-06-27T19:40:01.121Z,19.00
2023-06-27T19:42:28.352Z,18.90
2023-06-27T19:44:55.295Z,18.80
2023-06-27T19:47:25.917Z,18.80
2023-06-27T19:49:54.032Z,18.70
2023-06-27T19:52:22.136Z,18.60
2023-06-27T19:54:49.251Z,18.60
2023-06-27T19:57:16.271Z,18.50
2023-06-27T19:59:43.247Z,18.50
2023-06-27T20:02:10.494Z,18.40
2023-06-27T20:04:39.667Z,18.40
2023-06-27T20:07:07.369Z,18.30
2023-06-27T20:09:34.508Z,18.20
2023-06-27T20:12:01.513Z,18.10
2023-06-27T20:14:28.537Z,18.00
2023-06-27T20:16:55.601Z,17.90
2023-06-27T20:19:22.785Z,17.80
2023-06-27T20:21:49.963Z,17.60
2023-06-27T20:24:17.765Z,17.50
2023-06-27T20:26:45.121Z,17.50
2023-06-27T20:29:12.208Z,17.50
2023-06-27T20:31:39.245Z,17.60
2023-06-27T20:34:06.642Z,17.60
2023-06-27T20:36:33.932Z,17.70
2023-06-27T20:39:00.969Z,17.80
2023-06-27T20:41:28.141Z,17.90
2023-06-27T20:43:55.285Z,19.20
2023-06-27T20:46:22.547Z,17.80
2023-06-27T20:48:50.834Z,17.80
2023-06-27T20:51:18.020Z,17.80
2023-06-27T20:53:45.135Z,17.80
2023-06-27T20:56:12.170Z,17.80
2023-06-27T20:58:39.080Z,17.80
2023-06-27T21:01:06.084Z,17.90
2023-06-27T21:03:33.320Z,17.90
2023-06-27T21:06:00.737Z,17.80
2023-06-27T21:08:27.635Z,17.80
2023-06-27T21:10:54.618Z,17.70
2023-06-27T21:13:21.588Z,17.60
2023-06-27T21:15:48.695Z,17.60
2023-06-27T21:18:16.009Z,17.60
2023-06-27T21:20:43.219Z,17.50
2023-06-27T21:23:10.426Z,17.50
2023-06-27T21:25:37.524Z,17.50
2023-06-27T21:28:04.660Z,17.40
2023-06-27T21:30:31.635Z,17.40
2023-06-27T21:32:58.750Z,17.40
2023-06-27T21:35:26.161Z,17.40
2023-06-27T21:37:53.137Z,17.30
2023-06-27T21:40:20.281Z,17.30
2023-06-27T21:42:47.409Z,17.30
2023-06-27T21:45:14.646Z,17.20
2023-06-27T21:47:41.810Z,17.20
2023-06-27T21:50:09.015Z,17.10
2023-06-27T21:52:36.287Z,17.10
2023-06-27T21:55:03.623Z,17.10
2023-06-27T21:57:30.634Z,17.10
2023-06-27T21:59:57.632Z,17.10
2023-06-27T22:02:24.810Z,17.00
2023-06-27T22:04:56.028Z,16.90
2023-06-27T22:07:23.548Z,18.70
2023-06-27T22:09:50.802Z,16.60
2023-06-27T22:12:18.517Z,16.60
2023-06-27T22:14:45.587Z,16.60
2023-06-27T22:17:12.558Z,16.60
2023-06-27T22:19:39.523Z,16.60
2023-06-27T22:22:06.785Z,16.50
2023-06-27T22:24:33.889Z,16.50
2023-06-27T22:27:01.284Z,16.50
2023-06-27T22:29:30.397Z,16.50
2023-06-27T22:31:57.416Z,16.50
2023-06-27T22:34:24.599Z,16.50
2023-06-27T22:36:51.920Z,16.50
2023-06-27T22:39:18.910Z,16.50
2023-06-27T22:41:46.187Z,16.40
2023-06-27T22:44:13.354Z,18.20
2023-06-27T22:46:40.542Z,16.40
2023-06-27T22:49:07.742Z,16.30
2023-06-27T22:51:34.802Z,16.30
2023-06-27T22:54:02.115Z,16.30
2023-06-27T22:56:32.310Z,16.30
2023-06-27T22:58:59.448Z,15.30
2023-06-27T23:01:27.120Z,16.20
2023-06-27T23:03:55.021Z,16.30
2023-06-27T23:06:22.345Z,16.30
2023-06-27T23:08:49.912Z,16.30
2023-06-27T23:11:16.909Z,16.30
2023-06-27T23:13:43.950Z,16.30
2023-06-27T23:16:12.961Z,16.20
2023-06-27T23:18:40.379Z,16.20
2023-06-27T23:21:11.812Z,16.20
2023-06-27T23:23:39.873Z,16.00
2023-06-27T23:26:14.186Z,16.00
2023-06-27T23:29:01.791Z,15.90
2023-06-27T23:31:35.988Z,15.80
2023-06-27T23:34:05.734Z,15.70
2023-06-27T23:36:41.611Z,15.80
2023-06-27T23:39:09.469Z,15.70
2023-06-27T23:41:39.957Z,15.60
2023-06-27T23:44:07.189Z,15.50
2023-06-27T23:46:34.932Z,15.40
2023-06-27T23:49:02.086Z,15.40
2023-06-27T23:51:29.033Z,15.40
2023-06-27T23:53:56.082Z,15.40
2023-06-27T23:56:23.382Z,15.50
2023-06-27T23:58:50.530Z,15.40
